Time;durP1;ratioP1;P1;durP2;ratioP2;P2;SDS_P1;SDS_P2;PMS_P1;PMS_P2;Temp;Humidity;BMP_temperature;BMP_pressure;BME280_temperature;BME280_humidity;BME280_pressure;Samples;Min_cycle;Max_cycle;Signal;HPM_P1;HPM_P2
2021/04/08 00:00:19;;;;;;;12.10;4.47;;;2.20;99.90;;;;;;4982108;28;20046;-73
2021/04/08 00:02:45;;;;;;;13.77;5.25;;;2.00;99.90;;;;;;4980772;28;20488;-73
2021/04/08 00:05:14;;;;;;;14.38;5.05;;;2.00;99.90;;;;;;4981158;28;20027;-73
2021/04/08 00:07:41;;;;;;;11.95;4.57;;;2.00;99.90;;;;;;4979334;28;20081;-73
2021/04/08 00:10:07;;;;;;;14.02;4.95;;;2.10;99.90;;;;;;4981567;28;20033;-73
2021/04/08 00:12:33;;;;;;;11.23;5.07;;;2.10;99.90;;;;;;4983128;28;20039;-72
2021/04/08 00:14:59;;;;;;;13.45;5.40;;;2.10;99.90;;;;;;4998110;28;20065;-74
2021/04/08 00:17:24;;;;;;;9.35;5.03;;;2.10;99.90;;;;;;4983274;28;20030;-72
2021/04/08 00:19:50;;;;;;;10.27;4.90;;;2.10;99.90;;;;;;4984592;28;20030;-72
2021/04/08 00:22:16;;;;;;;10.32;4.18;;;2.10;99.90;;;;;;4982998;28;20054;-74
2021/04/08 00:24:41;;;;;;;8.27;4.13;;;2.10;99.90;;;;;;4981226;28;20097;-73
2021/04/08 00:27:07;;;;;;;14.13;4.20;;;2.10;99.90;;;;;;4978180;28;20038;-73
2021/04/08 00:29:33;;;;;;;13.35;4.43;;;2.10;99.90;;;;;;4981325;28;21352;-73
2021/04/08 00:31:59;;;;;;;6.07;3.65;;;2.20;99.90;;;;;;4996227;28;20027;-73
2021/04/08 00:34:25;;;;;;;8.98;4.00;;;2.20;99.90;;;;;;4982681;28;20030;-73
2021/04/08 00:36:50;;;;;;;8.20;3.97;;;2.20;99.90;;;;;;4978955;28;20034;-73
2021/04/08 00:39:16;;;;;;;13.10;4.53;;;2.20;99.90;;;;;;4982475;28;20161;-73
2021/04/08 00:41:42;;;;;;;9.65;3.85;;;2.20;99.90;;;;;;4981702;28;20140;-73
2021/04/08 00:44:08;;;;;;;10.98;4.75;;;2.30;99.90;;;;;;4978782;28;20054;-73
2021/04/08 00:46:34;;;;;;;8.85;4.53;;;2.20;99.90;;;;;;4980806;28;20037;-73
2021/04/08 00:48:59;;;;;;;11.88;4.70;;;2.20;99.90;;;;;;4983434;28;20371;-74
2021/04/08 00:51:25;;;;;;;12.60;5.72;;;2.20;99.90;;;;;;4985310;28;20037;-73
2021/04/08 00:53:52;;;;;;;9.90;5.03;;;2.20;99.90;;;;;;4985848;28;20045;-72
2021/04/08 00:56:17;;;;;;;12.40;4.90;;;2.20;99.90;;;;;;4982370;28;20483;-73
2021/04/08 00:58:43;;;;;;;9.38;4.43;;;2.20;99.90;;;;;;4981269;28;20065;-72
2021/04/08 01:01:11;;;;;;;9.40;4.78;;;2.20;99.90;;;;;;4975356;28;20122;-75
2021/04/08 01:03:37;;;;;;;12.80;4.93;;;2.20;99.90;;;;;;4992640;28;20046;-74
2021/04/08 01:06:03;;;;;;;7.32;4.10;;;2.20;99.90;;;;;;5008341;28;20050;-71
2021/04/08 01:08:29;;;;;;;13.13;4.60;;;2.30;99.90;;;;;;4989123;28;20112;-73
2021/04/08 01:10:54;;;;;;;8.60;4.85;;;2.30;99.90;;;;;;4980964;28;20045;-73
2021/04/08 01:13:22;;;;;;;14.35;5.20;;;2.30;99.90;;;;;;4989488;28;20289;-73
2021/04/08 01:15:48;;;;;;;18.00;4.93;;;2.40;99.90;;;;;;4986957;28;20050;-74
2021/04/08 01:18:44;;;;;;;7.85;4.82;;;2.30;99.90;;;;;;4984503;28;20208;-72
2021/04/08 01:21:29;;;;;;;12.27;4.60;;;2.30;99.90;;;;;;4981986;28;20030;-71
2021/04/08 01:24:07;;;;;;;14.10;4.93;;;2.40;99.90;;;;;;4976848;28;20030;-74
2021/04/08 01:26:50;;;;;;;12.90;4.55;;;2.40;99.90;;;;;;4976646;28;20026;-74
2021/04/08 01:29:26;;;;;;;15.73;4.20;;;2.40;99.90;;;;;;4976761;28;20035;-74
2021/04/08 01:31:52;;;;;;;11.13;4.50;;;2.40;99.90;;;;;;4976136;28;20046;-74
2021/04/08 01:34:22;;;;;;;8.93;4.43;;;2.40;99.90;;;;;;4980209;28;20026;-72
2021/04/08 01:36:55;;;;;;;11.88;5.88;;;2.40;99.90;;;;;;4980123;28;20038;-73
2021/04/08 01:39:22;;;;;;;23.25;5.22;;;2.40;99.90;;;;;;4981639;28;20031;-74
2021/04/08 01:41:48;;;;;;;8.63;5.07;;;2.40;99.90;;;;;;4977732;28;20061;-74
2021/04/08 01:44:20;;;;;;;11.43;4.63;;;2.40;99.90;;;;;;4980326;28;20077;-74
2021/04/08 01:46:55;;;;;;;11.88;5.22;;;2.40;99.90;;;;;;4979474;28;20376;-72
2021/04/08 01:49:21;;;;;;;10.13;4.43;;;2.40;99.90;;;;;;4978968;28;20022;-73
2021/04/08 01:51:47;;;;;;;11.38;4.72;;;2.40;99.90;;;;;;4979232;28;20496;-74
2021/04/08 01:54:15;;;;;;;13.73;4.13;;;2.50;99.90;;;;;;4981935;28;20026;-74
2021/04/08 01:56:42;;;;;;;6.68;3.40;;;2.50;99.90;;;;;;4979211;28;20073;-72
2021/04/08 01:59:11;;;;;;;13.52;3.50;;;2.50;99.90;;;;;;4980297;28;20054;-73
2021/04/08 02:01:37;;;;;;;12.73;2.80;;;2.60;99.90;;;;;;4994171;28;20035;-72
2021/04/08 02:04:06;;;;;;;8.63;3.33;;;2.50;99.90;;;;;;4982229;28;20081;-72
2021/04/08 02:06:32;;;;;;;7.05;3.72;;;2.50;99.90;;;;;;4980205;28;20138;-72
2021/04/08 02:08:59;;;;;;;6.07;3.10;;;2.50;99.90;;;;;;4980242;28;20130;-74
2021/04/08 02:11:25;;;;;;;8.93;3.42;;;2.50;99.90;;;;;;4976476;28;20030;-75
2021/04/08 02:13:52;;;;;;;9.48;3.80;;;2.60;99.90;;;;;;4981272;28;20367;-72
2021/04/08 02:16:20;;;;;;;7.30;3.83;;;2.60;99.90;;;;;;4992625;28;20019;-74
2021/04/08 02:18:48;;;;;;;9.00;3.70;;;2.60;99.90;;;;;;4986964;28;20488;-73
2021/04/08 02:21:15;;;;;;;12.48;3.65;;;2.60;99.90;;;;;;4985653;28;20034;-74
2021/04/08 02:23:42;;;;;;;14.88;4.15;;;2.60;99.90;;;;;;4979985;28;20543;-74
2021/04/08 02:26:10;;;;;;;9.25;3.13;;;2.60;99.90;;;;;;4983059;28;20023;-73
2021/04/08 02:28:37;;;;;;;9.85;3.35;;;2.60;99.90;;;;;;4983013;28;20037;-73
2021/04/08 02:31:04;;;;;;;16.83;3.80;;;2.60;99.90;;;;;;4984256;28;20069;-73
2021/04/08 02:33:31;;;;;;;9.00;2.97;;;2.50;99.90;;;;;;4985744;28;20022;-73
2021/04/08 02:35:58;;;;;;;12.85;3.65;;;2.60;99.90;;;;;;4980254;28;20050;-73
2021/04/08 02:38:26;;;;;;;17.60;3.67;;;2.50;99.90;;;;;;4983142;28;20027;-74
2021/04/08 02:40:52;;;;;;;13.63;3.50;;;2.50;99.90;;;;;;4984598;28;20045;-74
2021/04/08 02:43:18;;;;;;;5.80;2.88;;;2.50;99.90;;;;;;5019758;23;20053;-76
2021/04/08 02:45:44;;;;;;;8.43;3.17;;;2.50;99.90;;;;;;5000883;28;20115;-76
2021/04/08 02:48:12;;;;;;;9.98;3.75;;;2.50;99.90;;;;;;4998871;28;20498;-75
2021/04/08 02:50:41;;;;;;;9.10;4.00;;;2.50;99.90;;;;;;5004154;28;20033;-75
2021/04/08 02:53:30;;;;;;;10.38;3.67;;;2.50;99.90;;;;;;5003706;28;20030;-75
2021/04/08 02:56:33;;;;;;;7.53;3.47;;;2.50;99.90;;;;;;5003683;28;20152;-74
2021/04/08 02:59:14;;;;;;;10.70;3.53;;;2.50;99.90;;;;;;4999780;28;20030;-75
2021/04/08 03:01:50;;;;;;;10.77;3.05;;;2.50;99.90;;;;;;4994960;28;20026;-76
2021/04/08 03:04:19;;;;;;;10.80;2.58;;;2.40;99.90;;;;;;4999110;28;20129;-75
2021/04/08 03:06:46;;;;;;;9.23;3.47;;;2.40;99.90;;;;;;4999939;28;20027;-75
2021/04/08 03:09:12;;;;;;;10.27;3.20;;;2.40;99.90;;;;;;4999394;28;20029;-75
2021/04/08 03:11:38;;;;;;;12.05;3.33;;;2.50;99.90;;;;;;5002067;28;20046;-75
2021/04/08 03:14:08;;;;;;;6.65;3.45;;;2.50;99.90;;;;;;5002555;28;20073;-75
2021/04/08 03:16:40;;;;;;;7.80;2.60;;;2.50;99.90;;;;;;4997981;28;20026;-75
2021/04/08 03:19:16;;;;;;;7.82;3.05;;;2.50;99.90;;;;;;4999225;28;20109;-76
2021/04/08 03:21:43;;;;;;;11.18;3.33;;;2.50;99.90;;;;;;4999058;28;20439;-76
2021/04/08 03:24:10;;;;;;;6.60;3.08;;;2.50;99.90;;;;;;5003111;28;20034;-75
2021/04/08 03:26:36;;;;;;;7.55;3.03;;;2.60;99.90;;;;;;5000205;28;20036;-76
2021/04/08 03:29:02;;;;;;;7.57;2.60;;;2.50;99.90;;;;;;5000166;28;20029;-76
2021/04/08 03:31:28;;;;;;;10.00;3.17;;;2.60;99.90;;;;;;5003316;28;20108;-76
2021/04/08 03:33:55;;;;;;;12.23;3.15;;;2.50;99.90;;;;;;5007844;28;20691;-76
2021/04/08 03:36:21;;;;;;;8.52;3.20;;;2.50;99.90;;;;;;4998149;28;20041;-76
2021/04/08 03:38:47;;;;;;;12.70;3.05;;;2.50;99.90;;;;;;4998146;28;20029;-76
2021/04/08 03:41:14;;;;;;;6.38;3.00;;;2.50;99.90;;;;;;5013832;28;20052;-76
2021/04/08 03:43:41;;;;;;;7.57;3.13;;;2.60;99.90;;;;;;4998545;28;20034;-76
2021/04/08 03:46:07;;;;;;;10.73;3.55;;;2.60;99.90;;;;;;4996996;28;20033;-76
2021/04/08 03:48:34;;;;;;;9.15;2.88;;;2.60;99.90;;;;;;4996586;28;20034;-76
2021/04/08 03:51:01;;;;;;;11.85;3.88;;;2.50;99.90;;;;;;4998030;28;20080;-76
2021/04/08 03:53:28;;;;;;;11.82;3.85;;;2.50;99.90;;;;;;4996729;28;20023;-76
2021/04/08 03:55:55;;;;;;;8.82;3.80;;;2.50;99.90;;;;;;4998975;28;20025;-76
2021/04/08 03:58:22;;;;;;;11.10;3.47;;;2.50;99.90;;;;;;4995069;28;20045;-76
2021/04/08 04:00:48;;;;;;;11.55;3.50;;;2.50;99.90;;;;;;4997111;28;20034;-76
2021/04/08 04:03:16;;;;;;;8.43;3.65;;;2.50;99.90;;;;;;4998563;28;20735;-76
2021/04/08 04:05:43;;;;;;;7.13;3.70;;;2.50;99.90;;;;;;4995853;28;20027;-76
2021/04/08 04:08:10;;;;;;;7.50;3.63;;;2.50;99.90;;;;;;5000445;28;20064;-76
2021/04/08 04:10:37;;;;;;;9.23;3.08;;;2.50;99.90;;;;;;4994043;28;20109;-77
2021/04/08 04:13:04;;;;;;;9.02;3.30;;;2.50;99.90;;;;;;4999662;28;20025;-75
2021/04/08 04:15:33;;;;;;;12.15;3.60;;;2.50;99.90;;;;;;4993421;28;20078;-75
2021/04/08 04:18:01;;;;;;;7.95;3.22;;;2.50;99.90;;;;;;4999520;28;20026;-75
2021/04/08 04:20:27;;;;;;;6.20;2.60;;;2.50;99.90;;;;;;5001993;28;20023;-75
2021/04/08 04:22:53;;;;;;;9.07;2.90;;;2.50;99.90;;;;;;5001060;28;20071;-75
2021/04/08 04:25:18;;;;;;;9.05;2.78;;;2.50;99.90;;;;;;4996187;28;20030;-75
2021/04/08 04:27:44;;;;;;;8.90;2.75;;;2.50;99.90;;;;;;4998956;28;20035;-75
2021/04/08 04:30:10;;;;;;;9.18;3.03;;;2.40;99.90;;;;;;4991515;28;20134;-75
2021/04/08 04:32:36;;;;;;;7.47;2.92;;;2.40;99.90;;;;;;4994232;28;20057;-75
2021/04/08 04:35:03;;;;;;;7.53;2.45;;;2.40;99.90;;;;;;5001414;28;20054;-77
2021/04/08 04:37:28;;;;;;;8.27;2.60;;;2.40;99.90;;;;;;4998547;28;20038;-77
2021/04/08 04:39:54;;;;;;;15.90;3.25;;;2.30;99.90;;;;;;5002612;28;20057;-76
2021/04/08 04:42:19;;;;;;;9.63;3.08;;;2.30;99.90;;;;;;5001510;28;20042;-75
2021/04/08 04:44:45;;;;;;;9.27;3.30;;;2.30;99.90;;;;;;4998860;28;20022;-75
2021/04/08 04:47:11;;;;;;;13.43;3.40;;;2.30;99.90;;;;;;5002544;28;20029;-75
2021/04/08 04:49:36;;;;;;;9.88;3.75;;;2.30;99.90;;;;;;4997090;28;20545;-75
2021/04/08 04:52:03;;;;;;;11.25;4.07;;;2.30;99.90;;;;;;4999585;28;20443;-75
2021/04/08 04:54:28;;;;;;;15.30;4.63;;;2.30;99.90;;;;;;5003650;28;20397;-75
2021/04/08 04:56:54;;;;;;;10.50;4.10;;;2.30;99.90;;;;;;4997359;28;20030;-75
2021/04/08 04:59:20;;;;;;;14.77;4.15;;;2.30;99.90;;;;;;4995953;28;20170;-75
2021/04/08 05:01:45;;;;;;;9.93;3.53;;;2.30;99.90;;;;;;4998990;28;20124;-75
2021/04/08 05:04:11;;;;;;;7.40;3.60;;;2.30;99.90;;;;;;4997881;28;20029;-76
2021/04/08 05:06:36;;;;;;;14.43;3.28;;;2.30;99.90;;;;;;4997920;28;20030;-75
2021/04/08 05:09:02;;;;;;;10.23;3.20;;;2.30;99.90;;;;;;4996100;28;20367;-75
2021/04/08 05:11:28;;;;;;;16.48;3.63;;;2.30;99.90;;;;;;4993666;28;20279;-76
2021/04/08 05:13:54;;;;;;;5.85;3.33;;;2.30;99.90;;;;;;4997039;28;20041;-75
2021/04/08 05:16:19;;;;;;;9.57;3.55;;;2.40;99.90;;;;;;4993038;28;20030;-75
2021/04/08 05:18:46;;;;;;;10.07;3.35;;;2.40;99.90;;;;;;5002062;28;20022;-76
2021/04/08 05:21:11;;;;;;;8.43;3.10;;;2.40;99.90;;;;;;4998138;28;20026;-74
2021/04/08 05:23:38;;;;;;;6.00;3.33;;;2.40;99.90;;;;;;4997024;28;20430;-76
2021/04/08 05:26:04;;;;;;;12.35;4.10;;;2.40;99.90;;;;;;4999025;28;20056;-75
2021/04/08 05:28:30;;;;;;;11.43;3.55;;;2.50;99.90;;;;;;5003673;28;20712;-75
2021/04/08 05:30:56;;;;;;;13.95;4.30;;;2.40;99.90;;;;;;4997145;28;20081;-75
2021/04/08 05:33:21;;;;;;;8.30;3.28;;;2.50;99.90;;;;;;5001957;28;20033;-76
2021/04/08 05:35:47;;;;;;;14.85;4.15;;;2.50;99.90;;;;;;5000454;28;20029;-74
2021/04/08 05:38:13;;;;;;;11.15;4.22;;;2.60;99.90;;;;;;4998871;28;20030;-75
2021/04/08 05:40:38;;;;;;;11.57;4.32;;;2.60;99.90;;;;;;4997921;28;20061;-75
2021/04/08 05:43:04;;;;;;;12.98;4.07;;;2.60;99.90;;;;;;4997675;28;20038;-76
2021/04/08 05:45:31;;;;;;;10.70;4.20;;;2.60;99.90;;;;;;4999559;28;20022;-76
2021/04/08 05:47:57;;;;;;;8.13;3.72;;;2.60;99.90;;;;;;4999621;28;20030;-77
2021/04/08 05:50:22;;;;;;;11.32;4.10;;;2.60;99.90;;;;;;4993850;28;20030;-76
2021/04/08 05:52:48;;;;;;;8.80;3.60;;;2.70;99.90;;;;;;4998833;28;20031;-75
2021/04/08 05:55:14;;;;;;;19.20;4.30;;;2.70;99.90;;;;;;4999925;28;20023;-75
2021/04/08 05:57:40;;;;;;;8.88;3.42;;;2.70;99.90;;;;;;4995815;28;20022;-76
2021/04/08 06:00:09;;;;;;;13.48;4.40;;;2.80;99.90;;;;;;4995841;28;20022;-76
2021/04/08 06:02:35;;;;;;;15.85;3.38;;;2.80;99.90;;;;;;4998793;28;20025;-74
2021/04/08 06:05:02;;;;;;;11.00;3.40;;;2.90;99.90;;;;;;5001343;28;20053;-79
2021/04/08 06:07:28;;;;;;;9.10;3.38;;;2.90;99.90;;;;;;5003194;28;20026;-79
2021/04/08 06:09:53;;;;;;;12.55;3.72;;;3.00;99.90;;;;;;5004610;28;20544;-75
2021/04/08 06:12:19;;;;;;;8.63;3.20;;;3.10;99.90;;;;;;5001433;28;20030;-76
2021/04/08 06:14:47;;;;;;;13.63;3.92;;;3.10;99.90;;;;;;4998971;28;20022;-76
2021/04/08 06:17:13;;;;;;;8.25;3.33;;;3.20;99.90;;;;;;5005884;28;20022;-74
2021/04/08 06:19:39;;;;;;;7.78;2.95;;;3.20;99.90;;;;;;5001750;28;20037;-75
2021/04/08 06:22:04;;;;;;;7.57;2.80;;;3.30;99.90;;;;;;5004520;28;20034;-75
2021/04/08 06:24:30;;;;;;;5.32;2.67;;;3.30;99.90;;;;;;5000515;28;20030;-75
2021/04/08 06:26:56;;;;;;;10.18;3.13;;;3.30;99.90;;;;;;5002868;28;20030;-76
2021/04/08 06:29:22;;;;;;;6.57;3.00;;;3.50;99.90;;;;;;4998922;28;20034;-76
2021/04/08 06:31:48;;;;;;;10.82;3.10;;;3.50;99.90;;;;;;5002247;28;20101;-76
2021/04/08 06:34:14;;;;;;;5.40;2.80;;;3.60;99.90;;;;;;5000740;28;20104;-77
2021/04/08 06:36:39;;;;;;;16.63;4.28;;;3.70;99.90;;;;;;5001698;28;20070;-77
2021/04/08 06:39:05;;;;;;;11.98;3.22;;;3.80;99.90;;;;;;5003147;28;20042;-77
2021/04/08 06:41:31;;;;;;;12.80;3.53;;;3.80;99.90;;;;;;5003720;28;20034;-76
2021/04/08 06:44:01;;;;;;;12.00;3.13;;;3.80;99.90;;;;;;5009412;28;20494;-76
2021/04/08 06:46:29;;;;;;;10.55;3.35;;;3.90;99.90;;;;;;5000360;28;20072;-77
2021/04/08 06:49:11;;;;;;;6.82;3.72;;;3.90;98.30;;;;;;4998535;28;20509;-77
2021/04/08 06:51:42;;;;;;;22.85;4.47;;;4.00;96.60;;;;;;5002776;28;20038;-77
2021/04/08 06:54:08;;;;;;;14.60;3.40;;;4.00;95.30;;;;;;5003521;28;20033;-76
2021/04/08 06:56:35;;;;;;;11.88;4.32;;;4.10;94.00;;;;;;5004584;28;20030;-77
2021/04/08 06:59:01;;;;;;;8.77;3.90;;;4.10;92.60;;;;;;5003590;28;20113;-76
2021/04/08 07:01:27;;;;;;;9.18;3.90;;;4.20;91.80;;;;;;4989690;28;20083;-76
2021/04/08 07:03:54;;;;;;;7.35;3.95;;;4.50;90.80;;;;;;5013500;28;20080;-77
2021/04/08 07:06:20;;;;;;;16.63;4.47;;;4.50;87.10;;;;;;5003888;28;20038;-76
2021/04/08 07:08:46;;;;;;;11.50;4.25;;;4.70;87.70;;;;;;5002125;28;20361;-76
2021/04/08 07:11:12;;;;;;;12.00;4.50;;;5.00;89.00;;;;;;5002493;28;20119;-77
2021/04/08 07:13:39;;;;;;;9.80;4.68;;;5.10;82.00;;;;;;4999769;28;20030;-77
2021/04/08 07:16:05;;;;;;;15.27;3.90;;;5.20;81.70;;;;;;5002935;28;20041;-77
2021/04/08 07:18:30;;;;;;;11.95;4.63;;;5.40;81.40;;;;;;4998565;28;20446;-76
2021/04/08 07:20:57;;;;;;;11.02;4.25;;;5.50;79.30;;;;;;4999008;28;20065;-76
2021/04/08 07:23:24;;;;;;;9.00;4.25;;;5.10;73.90;;;;;;4998134;28;20181;-77
2021/04/08 07:26:09;;;;;;;8.82;4.07;;;5.30;74.40;;;;;;4999512;28;20030;-76
2021/04/08 07:28:42;;;;;;;10.00;4.57;;;5.40;73.60;;;;;;5004214;28;20029;-75
2021/04/08 07:31:27;;;;;;;11.60;4.38;;;5.70;69.00;;;;;;4999296;28;20548;-76
2021/04/08 07:33:55;;;;;;;10.65;4.82;;;6.00;67.30;;;;;;5002547;28;20562;-75
2021/04/08 07:36:36;;;;;;;7.65;3.85;;;6.60;62.90;;;;;;5002121;28;20022;-76
2021/04/08 07:39:05;;;;;;;10.75;4.18;;;6.60;57.30;;;;;;4995430;28;20491;-78
2021/04/08 07:41:33;;;;;;;11.57;4.40;;;6.20;56.00;;;;;;4999045;28;20031;-77
2021/04/08 07:44:00;;;;;;;8.23;3.92;;;6.10;60.40;;;;;;5005371;28;20065;-77
2021/04/08 07:46:36;;;;;;;17.02;5.57;;;6.10;60.90;;;;;;5000534;28;20026;-77
2021/04/08 07:49:04;;;;;;;14.65;5.18;;;6.10;62.80;;;;;;5001894;28;20112;-77
2021/04/08 07:51:34;;;;;;;9.98;5.20;;;6.10;61.70;;;;;;5000306;28;20048;-76
2021/04/08 07:54:14;;;;;;;10.57;4.88;;;6.00;62.40;;;;;;5000566;28;20561;-77
2021/04/08 07:56:41;;;;;;;16.83;5.50;;;6.10;63.70;;;;;;4995187;28;20026;-76
2021/04/08 07:59:26;;;;;;;15.02;5.63;;;6.10;63.30;;;;;;5002811;28;20018;-76
2021/04/08 08:02:12;;;;;;;16.75;5.45;;;6.20;63.40;;;;;;4996013;28;20543;-76
2021/04/08 08:04:38;;;;;;;13.43;5.53;;;5.90;61.70;;;;;;4999086;28;20054;-76
2021/04/08 08:07:04;;;;;;;20.83;5.50;;;6.10;62.20;;;;;;4999957;28;20042;-76
2021/04/08 08:09:31;;;;;;;13.20;5.00;;;6.20;62.90;;;;;;4999809;28;20033;-76
2021/04/08 08:12:08;;;;;;;21.35;6.00;;;6.10;61.50;;;;;;4995249;28;20043;-76
2021/04/08 08:14:39;;;;;;;18.25;5.45;;;5.90;62.40;;;;;;4999798;28;20093;-76
2021/04/08 08:17:13;;;;;;;21.70;5.60;;;6.00;61.50;;;;;;4998699;28;20258;-76
2021/04/08 08:19:43;;;;;;;11.43;4.60;;;6.40;63.00;;;;;;4999086;28;20022;-77
2021/04/08 08:22:17;;;;;;;11.35;4.75;;;6.60;60.40;;;;;;4995724;28;20117;-77
2021/04/08 08:24:54;;;;;;;10.45;4.80;;;6.90;61.40;;;;;;4995461;28;20033;-76
2021/04/08 08:27:19;;;;;;;20.05;6.45;;;7.30;59.40;;;;;;5004149;28;20037;-77
2021/04/08 08:29:57;;;;;;;16.40;4.22;;;7.70;56.90;;;;;;4999905;28;20049;-77
2021/04/08 08:32:24;;;;;;;6.93;4.15;;;7.40;54.40;;;;;;4997620;28;20026;-76
2021/04/08 08:34:49;;;;;;;13.48;4.25;;;7.40;53.90;;;;;;5000550;28;20029;-76
2021/04/08 08:37:15;;;;;;;15.60;4.25;;;7.10;53.60;;;;;;4999692;28;20026;-76
2021/04/08 08:39:47;;;;;;;8.35;3.30;;;7.20;53.30;;;;;;4991648;28;20026;-76
2021/04/08 08:42:16;;;;;;;10.63;4.00;;;7.00;53.20;;;;;;4997650;28;20107;-77
2021/04/08 08:44:45;;;;;;;8.02;3.80;;;6.90;52.40;;;;;;4997180;28;20049;-77
2021/04/08 08:47:24;;;;;;;14.48;4.15;;;7.00;52.70;;;;;;4996467;28;20128;-78
2021/04/08 08:49:54;;;;;;;9.68;3.30;;;6.80;50.90;;;;;;4995892;28;20030;-77
2021/04/08 08:52:41;;;;;;;13.82;3.70;;;6.90;52.50;;;;;;5000071;28;20044;-75
2021/04/08 08:55:12;;;;;;;8.18;4.05;;;7.00;51.20;;;;;;4999691;28;20017;-75
2021/04/08 08:57:39;;;;;;;8.75;3.53;;;7.00;50.60;;;;;;4994646;28;20122;-75
2021/04/08 09:00:07;;;;;;;10.27;3.65;;;7.40;45.40;;;;;;4995191;28;20029;-75
2021/04/08 09:02:35;;;;;;;13.75;4.03;;;8.00;45.40;;;;;;4997845;28;20045;-75
2021/04/08 09:05:03;;;;;;;11.23;3.90;;;8.90;42.90;;;;;;4998200;28;20068;-76
2021/04/08 09:07:30;;;;;;;11.02;3.88;;;9.90;39.80;;;;;;4995660;28;20029;-77
2021/04/08 09:10:00;;;;;;;16.48;3.17;;;10.50;35.00;;;;;;4995699;28;20398;-76
2021/04/08 09:12:26;;;;;;;6.10;3.25;;;10.30;33.10;;;;;;5001056;28;20033;-75
2021/04/08 09:14:54;;;;;;;8.27;3.03;;;9.60;33.80;;;;;;5002973;28;20495;-77
2021/04/08 09:17:48;;;;;;;9.75;3.13;;;9.90;32.30;;;;;;4993543;28;20723;-76
2021/04/08 09:20:18;;;;;;;9.35;3.40;;;9.70;34.10;;;;;;4995974;28;20097;-75
2021/04/08 09:22:55;;;;;;;7.75;3.15;;;8.90;32.20;;;;;;4996661;28;20034;-75
2021/04/08 09:25:26;;;;;;;16.48;3.65;;;8.70;39.80;;;;;;4992919;28;20030;-76
2021/04/08 09:27:59;;;;;;;7.05;3.35;;;7.90;36.60;;;;;;5001045;28;20104;-77
2021/04/08 09:30:31;;;;;;;11.45;3.50;;;7.90;37.90;;;;;;5000934;28;20036;-77
2021/04/08 09:32:57;;;;;;;15.20;3.10;;;8.40;39.80;;;;;;5000461;28;21162;-76
2021/04/08 09:35:28;;;;;;;11.60;3.70;;;8.80;36.90;;;;;;4999616;28;20065;-76
2021/04/08 09:37:59;;;;;;;8.02;2.63;;;10.60;32.10;;;;;;4998418;28;20022;-75
2021/04/08 09:40:45;;;;;;;9.80;2.97;;;10.90;25.50;;;;;;4996791;28;20026;-78
2021/04/08 09:43:12;;;;;;;8.07;3.20;;;10.40;24.10;;;;;;5003437;28;20092;-76
2021/04/08 09:45:49;;;;;;;14.18;3.45;;;10.20;26.10;;;;;;4997333;28;20026;-75
2021/04/08 09:48:21;;;;;;;9.27;3.72;;;10.00;28.40;;;;;;4993967;28;20514;-75
2021/04/08 09:50:54;;;;;;;10.20;3.95;;;9.10;29.50;;;;;;4992553;28;20450;-75
2021/04/08 09:53:24;;;;;;;11.68;4.20;;;9.70;30.90;;;;;;4999112;28;20395;-75
2021/04/08 09:55:51;;;;;;;12.57;3.92;;;9.60;34.10;;;;;;4999782;28;20034;-76
2021/04/08 09:58:20;;;;;;;16.45;4.93;;;9.60;34.20;;;;;;4998288;28;20024;-75
2021/04/08 10:00:46;;;;;;;10.48;4.22;;;9.70;31.60;;;;;;4997090;28;20434;-75
2021/04/08 10:03:12;;;;;;;13.95;3.80;;;9.40;31.50;;;;;;4996625;28;20034;-75
2021/04/08 10:05:39;;;;;;;7.57;3.40;;;8.70;32.70;;;;;;4993715;28;20112;-75
2021/04/08 10:08:05;;;;;;;7.05;3.40;;;9.10;34.70;;;;;;4998289;28;20026;-75
2021/04/08 10:10:37;;;;;;;8.10;3.63;;;8.00;34.10;;;;;;5001893;28;20057;-75
2021/04/08 10:13:15;;;;;;;11.95;3.97;;;8.10;35.80;;;;;;4996950;28;20382;-75
2021/04/08 10:15:41;;;;;;;6.72;3.58;;;8.20;36.40;;;;;;4995534;28;20474;-74
2021/04/08 10:18:27;;;;;;;15.05;3.72;;;7.80;35.50;;;;;;5001718;28;20034;-77
2021/04/08 10:20:55;;;;;;;16.17;3.78;;;7.90;36.40;;;;;;5000685;28;20644;-75
2021/04/08 10:23:41;;;;;;;14.23;3.72;;;7.70;36.60;;;;;;5001113;28;20038;-76
2021/04/08 10:26:12;;;;;;;8.75;3.75;;;7.60;37.50;;;;;;4996206;28;20116;-74
2021/04/08 10:28:47;;;;;;;7.35;3.28;;;7.50;37.80;;;;;;4994311;28;20044;-74
2021/04/08 10:31:25;;;;;;;8.13;3.88;;;7.30;37.00;;;;;;5000889;28;20030;-75
2021/04/08 10:34:01;;;;;;;7.13;3.70;;;7.00;37.00;;;;;;5002475;28;20165;-75
2021/04/08 10:36:29;;;;;;;9.45;3.60;;;7.10;37.00;;;;;;5003166;28;20152;-76
2021/04/08 10:39:10;;;;;;;13.98;4.20;;;7.20;37.90;;;;;;5004664;28;20022;-75
2021/04/08 10:41:37;;;;;;;8.13;3.30;;;7.50;37.60;;;;;;5001457;28;20018;-74
2021/04/08 10:44:19;;;;;;;9.40;3.05;;;7.70;37.50;;;;;;5000833;28;20030;-75
2021/04/08 10:46:45;;;;;;;11.20;3.35;;;7.60;38.00;;;;;;5000037;28;20057;-75
2021/04/08 10:49:18;;;;;;;10.52;3.72;;;7.50;37.30;;;;;;5006475;28;20033;-75
2021/04/08 10:51:43;;;;;;;11.30;4.10;;;7.50;36.80;;;;;;5000596;28;20030;-75
2021/04/08 10:54:09;;;;;;;19.55;5.07;;;7.20;37.90;;;;;;5003792;28;20023;-73
2021/04/08 10:56:37;;;;;;;14.38;4.28;;;7.20;39.40;;;;;;5001998;28;20372;-76
2021/04/08 10:59:19;;;;;;;10.70;3.92;;;7.20;38.50;;;;;;5000497;28;20026;-75
2021/04/08 11:01:46;;;;;;;12.57;4.35;;;7.30;37.70;;;;;;4995993;28;20014;-73
2021/04/08 11:04:12;;;;;;;11.65;4.07;;;7.20;38.20;;;;;;5002135;28;20030;-74
2021/04/08 11:06:38;;;;;;;11.32;5.20;;;7.50;39.30;;;;;;4999885;28;20508;-74
2021/04/08 11:09:05;;;;;;;15.85;5.40;;;7.50;39.30;;;;;;4998807;28;20029;-73
2021/04/08 11:11:31;;;;;;;11.38;4.38;;;7.80;38.90;;;;;;4997616;28;20033;-76
2021/04/08 11:13:56;;;;;;;12.23;4.65;;;7.90;38.70;;;;;;5003857;28;20578;-75
2021/04/08 11:16:23;;;;;;;11.82;4.60;;;8.10;38.40;;;;;;5001988;28;20022;-75
2021/04/08 11:18:48;;;;;;;15.82;5.40;;;8.10;36.80;;;;;;4997781;28;20022;-74
2021/04/08 11:21:14;;;;;;;9.93;5.00;;;8.50;35.70;;;;;;4999169;28;20026;-75
2021/04/08 11:23:40;;;;;;;16.35;5.00;;;9.00;35.30;;;;;;5000740;28;20108;-75
2021/04/08 11:26:09;;;;;;;14.10;4.55;;;8.90;34.60;;;;;;4997955;28;20042;-75
2021/04/08 11:28:41;;;;;;;10.65;4.15;;;8.90;34.60;;;;;;4997752;28;20029;-76
2021/04/08 11:31:18;;;;;;;16.50;4.38;;;9.30;34.30;;;;;;5004935;28;20018;-75
2021/04/08 11:33:43;;;;;;;13.23;4.13;;;9.40;32.70;;;;;;4988751;28;20034;-76
2021/04/08 11:36:19;;;;;;;10.00;3.90;;;9.20;32.30;;;;;;4990723;28;20671;-75
2021/04/08 11:38:46;;;;;;;13.45;3.70;;;9.40;32.20;;;;;;4999435;28;20034;-75
2021/04/08 11:41:12;;;;;;;6.75;3.10;;;9.40;29.50;;;;;;4999650;28;22253;-74
2021/04/08 11:43:41;;;;;;;10.60;4.47;;;9.10;30.60;;;;;;5000918;28;20105;-75
2021/04/08 11:46:23;;;;;;;10.45;3.67;;;9.00;30.30;;;;;;4999090;28;20061;-75
2021/04/08 11:48:49;;;;;;;12.50;3.72;;;9.00;30.60;;;;;;5000489;28;20315;-75
2021/04/08 11:51:15;;;;;;;10.45;2.75;;;8.90;29.40;;;;;;5001775;28;20479;-76
2021/04/08 11:53:43;;;;;;;9.52;3.47;;;9.10;29.80;;;;;;5003250;28;20419;-75
2021/04/08 11:56:33;;;;;;;15.45;3.45;;;11.10;25.60;;;;;;4998774;28;20032;-76
2021/04/08 11:59:15;;;;;;;5.88;2.80;;;12.00;23.50;;;;;;5006105;28;20411;-76
2021/04/08 12:01:46;;;;;;;6.63;2.67;;;11.90;20.00;;;;;;5000812;28;20115;-75
2021/04/08 12:04:19;;;;;;;12.30;3.67;;;11.30;22.80;;;;;;4997039;28;20034;-75
2021/04/08 12:06:50;;;;;;;9.10;3.78;;;10.40;23.90;;;;;;4997607;28;20041;-77
2021/04/08 12:09:16;;;;;;;9.90;3.30;;;10.10;23.20;;;;;;5000441;28;20053;-75
2021/04/08 12:11:53;;;;;;;10.73;3.40;;;9.40;25.10;;;;;;5002002;28;20030;-77
2021/04/08 12:14:19;;;;;;;14.32;3.38;;;9.30;26.50;;;;;;5011009;28;20399;-77
2021/04/08 12:17:03;;;;;;;8.38;3.10;;;9.10;26.70;;;;;;4993173;28;20038;-76
2021/04/08 12:19:29;;;;;;;7.47;3.22;;;9.10;26.50;;;;;;4999344;28;20054;-76
2021/04/08 12:22:00;;;;;;;12.75;3.22;;;8.90;27.40;;;;;;5000205;28;20498;-76
2021/04/08 12:24:26;;;;;;;8.00;2.92;;;9.00;27.20;;;;;;4994234;28;20036;-75
2021/04/08 12:26:51;;;;;;;7.85;3.13;;;8.80;25.70;;;;;;4999185;28;20034;-75
2021/04/08 12:29:20;;;;;;;6.93;2.97;;;8.80;26.50;;;;;;5005447;28;20029;-76
2021/04/08 12:31:50;;;;;;;6.70;2.75;;;8.70;27.20;;;;;;4998815;28;20026;-76
2021/04/08 12:34:16;;;;;;;5.60;3.10;;;9.20;28.80;;;;;;4998430;28;20115;-75
2021/04/08 12:36:42;;;;;;;7.68;2.83;;;9.30;27.80;;;;;;5001602;28;20029;-76
2021/04/08 12:39:08;;;;;;;6.40;3.22;;;9.50;25.60;;;;;;4988466;28;20047;-76
2021/04/08 12:41:33;;;;;;;9.38;2.92;;;9.40;25.70;;;;;;4995679;28;20065;-76
2021/04/08 12:43:59;;;;;;;7.03;3.05;;;9.10;26.00;;;;;;5001024;28;20033;-75
2021/04/08 12:46:25;;;;;;;4.30;2.30;;;9.00;27.30;;;;;;5000112;28;20087;-76
2021/04/08 12:48:50;;;;;;;10.77;3.00;;;9.20;27.10;;;;;;4999210;28;20026;-75
2021/04/08 12:51:16;;;;;;;9.48;3.47;;;9.10;26.90;;;;;;5000167;28;20033;-75
2021/04/08 12:53:42;;;;;;;12.13;3.53;;;9.40;26.00;;;;;;4996971;28;20034;-75
2021/04/08 12:56:08;;;;;;;8.93;2.63;;;9.80;25.90;;;;;;4990739;28;20209;-75
2021/04/08 12:58:34;;;;;;;10.25;2.90;;;9.40;25.00;;;;;;4998057;28;20060;-75